Time;durP1;ratioP1;P1;durP2;ratioP2;P2;SDS_P1;SDS_P2;PMS_P1;PMS_P2;Temp;Humidity;BMP_temperature;BMP_pressure;BME280_temperature;BME280_humidity;BME280_pressure;Samples;Min_cycle;Max_cycle;Signal;HPM_P1;HPM_P2
2023/01/29 00:01:24;;;;;;;14.52;6.20;;;;;;;-1.37;79.08;93986.13;5005232;28;20018;-81
2023/01/29 00:03:51;;;;;;;15.50;7.28;;;;;;;-1.31;79.16;93987.00;5005076;28;20046;-81
2023/01/29 00:06:16;;;;;;;18.17;7.00;;;;;;;-1.25;79.28;93988.66;5004929;28;20025;-80
2023/01/29 00:08:42;;;;;;;13.13;6.50;;;;;;;-1.24;78.97;93987.66;5005063;28;20018;-80
2023/01/29 00:11:08;;;;;;;16.40;6.82;;;;;;;-1.27;79.16;93985.50;5005000;28;20042;-80
2023/01/29 00:13:34;;;;;;;12.55;6.47;;;;;;;-1.34;79.27;93990.06;5003545;28;20088;-80
2023/01/29 00:16:00;;;;;;;13.13;6.47;;;;;;;-1.41;79.77;94000.69;5004834;28;20021;-81
2023/01/29 00:18:28;;;;;;;13.30;5.82;;;;;;;-1.38;79.96;93994.19;5004998;28;20014;-80
2023/01/29 00:20:54;;;;;;;13.93;5.75;;;;;;;-1.42;80.22;93991.28;5004846;28;20022;-80
2023/01/29 00:23:19;;;;;;;12.82;6.28;;;;;;;-1.49;80.27;93996.63;5004627;28;20124;-80
2023/01/29 00:25:45;;;;;;;15.13;6.80;;;;;;;-1.49;80.82;93986.16;5003893;28;20244;-81
2023/01/29 00:28:11;;;;;;;12.88;6.57;;;;;;;-1.39;80.52;93998.63;5004380;28;20018;-80
2023/01/29 00:30:37;;;;;;;12.80;6.70;;;;;;;-1.48;80.44;94000.84;5004550;28;20042;-80
2023/01/29 00:33:03;;;;;;;12.82;6.43;;;;;;;-1.45;80.80;93994.34;5004625;28;20101;-80
2023/01/29 00:35:29;;;;;;;14.43;6.72;;;;;;;-1.54;80.73;93993.16;5004798;28;20110;-80
2023/01/29 00:37:55;;;;;;;13.65;6.47;;;;;;;-1.56;80.25;94019.50;5004421;28;20197;-80
2023/01/29 00:40:21;;;;;;;13.18;6.38;;;;;;;-1.57;80.33;94002.22;5004475;28;20056;-80
2023/01/29 00:45:31;;;;;;;14.07;6.13;;;;;;;-1.59;81.09;94009.50;5004410;28;20029;-80
2023/01/29 00:47:57;;;;;;;14.00;6.80;;;;;;;-1.57;81.10;94001.44;5003282;28;20061;-80
2023/01/29 00:50:22;;;;;;;15.25;6.78;;;;;;;-1.57;80.99;93997.00;5004418;28;20065;-80
2023/01/29 00:52:50;;;;;;;14.10;7.63;;;;;;;-1.60;81.59;93996.69;5003890;28;20081;-80
2023/01/29 00:55:16;;;;;;;12.07;6.55;;;;;;;-1.54;81.57;94009.63;5004193;28;20125;-80
2023/01/29 00:57:42;;;;;;;12.48;6.10;;;;;;;-1.60;82.01;93997.47;5004249;28;20244;-80
2023/01/29 01:00:10;;;;;;;16.02;6.72;;;;;;;-1.58;82.00;93995.44;5002803;28;20033;-80
2023/01/29 01:05:20;;;;;;;11.20;5.95;;;;;;;-1.65;81.94;94005.22;5004162;28;20098;-81
2023/01/29 01:07:51;;;;;;;14.45;6.38;;;;;;;-1.62;81.89;94000.31;5004135;28;20018;-80
2023/01/29 01:10:28;;;;;;;14.00;6.50;;;;;;;-1.64;82.03;94018.06;5003865;28;20045;-81
2023/01/29 01:12:55;;;;;;;13.30;6.78;;;;;;;-1.64;82.16;94007.59;5003705;28;20022;-81
2023/01/29 01:15:23;;;;;;;14.70;6.43;;;;;;;-1.67;82.68;94008.09;5003801;28;20097;-80
2023/01/29 01:17:52;;;;;;;13.93;6.93;;;;;;;-1.72;82.26;94000.13;5003823;28;20020;-81
2023/01/29 01:20:18;;;;;;;13.60;6.40;;;;;;;-1.76;82.67;94003.44;5003703;28;20025;-81
2023/01/29 01:22:43;;;;;;;12.60;6.25;;;;;;;-1.72;83.16;93989.69;5003778;28;20038;-81
2023/01/29 01:25:09;;;;;;;17.52;6.65;;;;;;;-1.74;83.10;93996.19;5003923;28;20021;-80
2023/01/29 01:27:39;;;;;;;16.02;6.70;;;;;;;-1.68;83.17;93996.03;5003927;28;20018;-80
2023/01/29 01:30:07;;;;;;;15.63;6.93;;;;;;;-1.67;83.45;93996.81;5004345;28;20932;-80
2023/01/29 01:32:32;;;;;;;13.02;6.07;;;;;;;-1.68;83.10;93998.66;5002692;28;20038;-80
2023/01/29 01:34:58;;;;;;;12.52;5.93;;;;;;;-1.74;83.08;94002.19;5003847;28;20022;-80
2023/01/29 01:37:23;;;;;;;13.75;6.43;;;;;;;-1.78;82.84;94000.28;5003762;28;20332;-80
2023/01/29 01:39:49;;;;;;;13.57;6.53;;;;;;;-1.82;83.50;94002.56;5003602;28;20030;-80
2023/01/29 01:42:15;;;;;;;13.60;5.80;;;;;;;-1.83;83.45;94014.84;5003765;28;20015;-80
2023/01/29 01:44:54;;;;;;;12.20;5.28;;;;;;;-1.93;83.89;93993.75;5003866;28;20030;-80
2023/01/29 01:47:42;;;;;;;10.95;6.03;;;;;;;-1.93;84.20;94000.78;5003614;28;20217;-80
2023/01/29 01:50:17;;;;;;;12.88;6.00;;;;;;;-1.92;84.18;93997.91;5003025;28;20038;-80
2023/01/29 01:52:50;;;;;;;10.10;5.93;;;;;;;-1.90;84.18;94003.72;5003538;28;20069;-80
2023/01/29 01:55:20;;;;;;;12.85;5.93;;;;;;;-1.95;84.01;94008.84;5003752;28;20033;-80
2023/01/29 01:57:49;;;;;;;13.82;5.88;;;;;;;-1.95;83.96;94014.06;5002259;28;20030;-80
2023/01/29 02:00:19;;;;;;;17.70;7.60;;;;;;;-1.97;84.47;94010.91;5003878;28;20038;-80
2023/01/29 02:11:25;;;;;;;17.55;6.15;;;;;;;-1.87;84.75;94018.16;5003936;28;20097;-80
2023/01/29 02:13:52;;;;;;;11.52;6.28;;;;;;;-1.92;84.64;94010.97;5003301;28;20224;-80
2023/01/29 02:16:21;;;;;;;20.42;6.75;;;;;;;-1.85;84.54;94016.88;5003399;28;20018;-80
2023/01/29 02:18:47;;;;;;;12.20;5.93;;;;;;;-1.86;84.68;94015.28;5003344;28;20022;-80
2023/01/29 02:21:23;;;;;;;14.88;6.90;;;;;;;-1.87;85.13;94018.94;5003184;28;20042;-80
2023/01/29 02:23:55;;;;;;;16.73;6.55;;;;;;;-1.82;85.49;94016.41;5002194;28;20026;-80
2023/01/29 02:26:43;;;;;;;13.07;6.53;;;;;;;-1.86;85.45;94025.75;5003304;28;20018;-80
2023/01/29 02:29:21;;;;;;;14.27;6.30;;;;;;;-1.83;85.87;94024.50;5003101;28;20081;-80
2023/01/29 02:32:28;;;;;;;12.05;6.95;;;;;;;-1.85;85.40;94027.34;5003380;28;20041;-81
2023/01/29 02:35:30;;;;;;;11.32;5.80;;;;;;;-1.75;85.48;94034.59;5002849;28;20038;-80
2023/01/29 02:38:17;;;;;;;15.13;6.57;;;;;;;-1.74;85.49;94033.53;5003234;28;20034;-80
2023/01/29 02:41:07;;;;;;;13.25;7.32;;;;;;;-1.73;85.83;94040.38;5003097;28;20022;-80
2023/01/29 02:43:53;;;;;;;15.70;7.07;;;;;;;-1.68;86.06;94037.06;5003137;28;20026;-80
2023/01/29 02:46:37;;;;;;;12.52;5.75;;;;;;;-1.71;86.04;94043.56;5003180;28;20023;-80
2023/01/29 02:49:29;;;;;;;12.68;6.22;;;;;;;-1.73;86.26;94045.59;5003248;28;20026;-80
2023/01/29 02:52:03;;;;;;;11.63;6.25;;;;;;;-1.70;86.59;94041.72;5006528;28;20033;-81
2023/01/29 02:55:03;;;;;;;12.02;6.15;;;;;;;-1.67;86.77;94043.84;5006563;28;20026;-80
2023/01/29 02:57:34;;;;;;;12.82;6.25;;;;;;;-1.69;86.23;94054.56;5006484;28;20073;-81
2023/01/29 03:00:07;;;;;;;13.48;7.22;;;;;;;-1.71;86.78;94043.56;5006557;28;20030;-80
2023/01/29 03:02:40;;;;;;;13.07;6.40;;;;;;;-1.72;86.39;94038.56;5006376;28;20097;-81
2023/01/29 03:05:11;;;;;;;10.43;6.03;;;;;;;-1.72;86.80;94041.16;5006175;28;20304;-81
2023/01/29 03:07:45;;;;;;;9.25;5.15;;;;;;;-1.73;86.27;94047.41;5005175;28;20033;-80
2023/01/29 03:10:16;;;;;;;10.55;4.82;;;;;;;-1.82;85.80;94044.38;5005013;28;20030;-80
2023/01/29 03:12:45;;;;;;;14.85;4.90;;;;;;;-1.81;85.38;94048.59;5005906;28;20041;-80
2023/01/29 03:15:19;;;;;;;10.57;5.30;;;;;;;-1.80;84.58;94041.53;5006025;28;20034;-80
2023/01/29 03:18:13;;;;;;;7.22;3.95;;;;;;;-1.88;84.38;94053.13;5006010;28;20308;-81
2023/01/29 03:20:46;;;;;;;8.80;4.15;;;;;;;-1.80;84.53;94047.53;5004811;28;20389;-80
2023/01/29 03:23:22;;;;;;;7.05;3.83;;;;;;;-1.82;83.62;94050.38;5004657;28;20272;-80
2023/01/29 03:34:15;;;;;;;6.13;2.67;;;;;;;-1.75;81.36;94059.91;5005442;28;20034;-80
2023/01/29 03:36:47;;;;;;;6.63;3.33;;;;;;;-1.81;80.61;94045.97;5004494;28;20026;-81
2023/01/29 03:39:14;;;;;;;6.13;3.28;;;;;;;-1.69;80.83;94056.38;5005658;28;20057;-80
2023/01/29 03:41:54;;;;;;;6.68;2.80;;;;;;;-1.71;80.30;94051.38;5005495;28;20216;-81
2023/01/29 03:44:59;;;;;;;5.90;2.95;;;;;;;-1.69;80.08;94057.19;5005547;28;20030;-80
2023/01/29 03:47:36;;;;;;;6.93;2.88;;;;;;;-1.68;80.29;94050.91;5005671;28;20224;-80
2023/01/29 03:50:11;;;;;;;5.68;2.75;;;;;;;-1.69;80.34;94048.53;5004229;28;20298;-80
2023/01/29 03:52:49;;;;;;;6.85;2.92;;;;;;;-1.68;81.28;94053.53;5005483;28;20077;-80
2023/01/29 03:55:21;;;;;;;6.25;3.20;;;;;;;-1.66;81.70;94050.69;5005338;28;20029;-80
2023/01/29 03:57:50;;;;;;;5.28;3.20;;;;;;;-1.68;81.87;94055.34;5005252;28;20026;-80
2023/01/29 04:00:22;;;;;;;4.80;2.45;;;;;;;-1.73;81.73;94044.78;5005176;28;20026;-81
2023/01/29 04:02:47;;;;;;;6.38;3.13;;;;;;;-1.73;81.85;94050.84;5004148;28;20026;-81
2023/01/29 04:05:18;;;;;;;7.68;3.22;;;;;;;-1.73;82.11;94050.84;5005290;28;20053;-81
2023/01/29 04:07:44;;;;;;;6.18;2.75;;;;;;;-1.76;82.13;94045.25;5005276;28;20074;-81
2023/01/29 04:10:20;;;;;;;5.25;2.78;;;;;;;-1.73;82.03;94056.06;5004965;28;20049;-81
2023/01/29 04:12:54;;;;;;;4.75;2.72;;;;;;;-1.76;82.18;94046.06;5005079;28;20224;-81
2023/01/29 04:15:23;;;;;;;7.35;2.75;;;;;;;-1.78;81.89;94057.78;5004891;28;20029;-82
2023/01/29 04:17:54;;;;;;;4.53;3.00;;;;;;;-1.74;81.72;94045.81;5004900;28;20094;-82
2023/01/29 04:20:20;;;;;;;6.07;2.83;;;;;;;-1.77;82.12;94054.13;5003840;28;20411;-81
2023/01/29 04:22:47;;;;;;;4.13;2.33;;;;;;;-1.78;81.19;94052.53;5003387;28;20438;-81
2023/01/29 04:25:25;;;;;;;5.05;2.55;;;;;;;-1.82;81.49;94060.81;5004829;28;20053;-82
2023/01/29 04:28:18;;;;;;;4.80;2.30;;;;;;;-1.88;81.30;94059.13;5004569;28;20292;-82
2023/01/29 04:30:53;;;;;;;6.72;2.55;;;;;;;-1.85;82.36;94057.91;5004657;28;20026;-82
2023/01/29 04:33:33;;;;;;;5.88;2.65;;;;;;;-1.80;82.31;94067.66;5004552;28;20248;-81
2023/01/29 04:36:22;;;;;;;6.40;3.05;;;;;;;-1.78;82.40;94066.41;5004666;28;20030;-82
2023/01/29 04:39:05;;;;;;;5.55;2.80;;;;;;;-1.80;81.71;94070.28;5003359;28;20069;-82
2023/01/29 04:41:41;;;;;;;4.50;2.55;;;;;;;-1.82;82.64;94068.66;5004478;28;20027;-80
2023/01/29 04:44:25;;;;;;;4.30;2.75;;;;;;;-1.79;82.26;94071.84;5004512;28;20225;-80
2023/01/29 04:47:03;;;;;;;4.80;2.72;;;;;;;-1.77;82.47;94075.03;5004389;28;20030;-80
2023/01/29 04:49:33;;;;;;;5.70;2.95;;;;;;;-1.81;81.97;94064.25;5004383;28;20018;-81
2023/01/29 04:51:58;;;;;;;6.30;3.28;;;;;;;-1.80;81.58;94071.06;5004323;28;20248;-81
2023/01/29 04:54:52;;;;;;;5.03;2.60;;;;;;;-1.80;81.73;94062.44;5004180;28;20072;-81
2023/01/29 04:57:33;;;;;;;6.97;2.83;;;;;;;-1.82;81.76;94075.72;5004316;28;20252;-80
2023/01/29 05:00:10;;;;;;;5.32;3.20;;;;;;;-1.76;81.67;94076.63;5004324;28;20053;-80
2023/01/29 05:02:38;;;;;;;6.50;2.83;;;;;;;-1.78;81.28;94068.22;5002750;28;20065;-80
2023/01/29 05:05:06;;;;;;;6.25;3.05;;;;;;;-1.77;80.58;94075.03;5002895;28;20057;-81
2023/01/29 05:07:34;;;;;;;5.97;3.03;;;;;;;-1.72;80.69;94080.38;5003952;28;20053;-81
2023/01/29 05:10:00;;;;;;;7.28;2.65;;;;;;;-1.75;80.47;94076.41;5003921;28;20049;-81
2023/01/29 05:12:29;;;;;;;5.25;3.22;;;;;;;-1.75;80.59;94076.41;5003713;28;20034;-81
2023/01/29 05:15:00;;;;;;;5.85;2.58;;;;;;;-1.77;80.32;94075.03;5004091;28;20034;-81
2023/01/29 05:17:25;;;;;;;5.60;2.70;;;;;;;-1.72;80.71;94081.16;5004132;28;20060;-81
2023/01/29 05:19:51;;;;;;;4.45;2.17;;;;;;;-1.71;80.86;94084.56;5003805;28;20030;-81
2023/01/29 05:22:21;;;;;;;7.22;2.97;;;;;;;-1.73;81.22;94087.41;5003587;28;20038;-81
2023/01/29 05:24:47;;;;;;;5.47;3.13;;;;;;;-1.74;80.98;94079.81;5003872;28;20022;-81
2023/01/29 05:30:05;;;;;;;7.20;3.35;;;;;;;-1.73;81.41;94086.59;5003881;28;20053;-80
2023/01/29 05:32:31;;;;;;;5.28;3.20;;;;;;;-1.73;81.30;94091.81;5003522;28;20045;-80
2023/01/29 05:34:56;;;;;;;6.30;2.88;;;;;;;-1.71;81.75;94089.78;5003974;28;20073;-81
2023/01/29 05:37:22;;;;;;;6.10;3.33;;;;;;;-1.72;81.57;94090.81;5003636;28;20030;-81
2023/01/29 05:39:47;;;;;;;8.10;2.97;;;;;;;-1.67;81.54;94096.94;5003635;28;20063;-81
2023/01/29 05:42:13;;;;;;;5.82;2.97;;;;;;;-1.63;80.74;94105.09;5003757;28;20026;-81
2023/01/29 05:44:38;;;;;;;5.78;3.08;;;;;;;-1.59;80.58;94098.38;5003529;28;20069;-81
2023/01/29 05:47:03;;;;;;;6.80;3.10;;;;;;;-1.62;80.54;94097.03;5003679;28;20034;-81
2023/01/29 05:49:29;;;;;;;6.47;2.80;;;;;;;-1.58;80.83;94100.00;5003738;28;20050;-81
2023/01/29 05:51:55;;;;;;;6.10;3.25;;;;;;;-1.56;81.48;94097.94;5003462;28;20033;-81
2023/01/29 05:54:20;;;;;;;6.15;2.55;;;;;;;-1.56;81.47;94105.00;5003464;28;20030;-82
2023/01/29 05:56:46;;;;;;;5.95;3.38;;;;;;;-1.63;81.36;94102.47;5003627;28;20224;-81
2023/01/29 05:59:12;;;;;;;6.60;3.25;;;;;;;-1.66;82.59;94116.03;5003402;28;20026;-81
2023/01/29 06:01:37;;;;;;;5.80;3.33;;;;;;;-1.65;82.45;94121.03;5003249;28;20022;-82
2023/01/29 06:04:03;;;;;;;6.45;3.00;;;;;;;-1.69;83.00;94121.69;5003224;28;20320;-81
2023/01/29 06:06:28;;;;;;;6.82;3.60;;;;;;;-1.69;83.39;94122.53;5003468;28;20033;-81
2023/01/29 06:08:55;;;;;;;7.78;3.33;;;;;;;-1.72;82.85;94119.56;5003656;28;20034;-81
2023/01/29 06:11:20;;;;;;;6.20;3.13;;;;;;;-1.70;83.18;94125.34;5003598;28;20022;-81
2023/01/29 06:13:47;;;;;;;10.32;3.97;;;;;;;-1.69;83.34;94124.31;5003032;28;20260;-81
2023/01/29 06:16:13;;;;;;;6.00;3.28;;;;;;;-1.65;83.16;94130.66;5003288;28;20044;-81
2023/01/29 06:18:39;;;;;;;9.23;3.97;;;;;;;-1.60;83.27;94124.78;5003353;28;20212;-81
2023/01/29 06:21:08;;;;;;;8.07;3.42;;;;;;;-1.65;83.52;94131.50;5003373;28;20029;-80
2023/01/29 06:23:34;;;;;;;6.72;3.15;;;;;;;-1.69;84.00;94134.78;5003564;28;20021;-81
2023/01/29 06:26:04;;;;;;;8.48;3.92;;;;;;;-1.59;84.05;94140.22;5005493;28;20018;-80
2023/01/29 06:28:30;;;;;;;7.20;3.20;;;;;;;-1.61;83.87;94150.09;5007000;28;20320;-81
2023/01/29 06:31:00;;;;;;;7.00;3.80;;;;;;;-1.68;84.08;94150.22;5007286;28;20065;-82
2023/01/29 06:33:26;;;;;;;6.50;3.15;;;;;;;-1.64;84.51;94155.81;5007054;28;20098;-81
2023/01/29 06:35:56;;;;;;;6.88;3.90;;;;;;;-1.59;84.24;94158.50;5007139;28;20027;-81
2023/01/29 06:38:22;;;;;;;15.25;5.05;;;;;;;-1.53;84.56;94159.41;5006984;28;20026;-81
2023/01/29 06:40:47;;;;;;;9.68;3.95;;;;;;;-1.51;84.29;94158.16;5005901;28;20061;-81
2023/01/29 06:43:13;;;;;;;9.98;4.70;;;;;;;-1.51;84.33;94163.38;5005603;28;20029;-81
2023/01/29 06:45:46;;;;;;;10.60;4.13;;;;;;;-1.54;84.58;94156.00;5006570;28;20033;-81
2023/01/29 06:48:11;;;;;;;8.63;3.92;;;;;;;-1.51;84.34;94163.38;5005501;28;20053;-81
2023/01/29 06:50:37;;;;;;;8.13;4.55;;;;;;;-1.49;84.48;94157.94;5006730;28;20022;-81
2023/01/29 06:53:02;;;;;;;8.20;4.07;;;;;;;-1.45;84.51;94162.47;5006563;28;20046;-81
2023/01/29 06:55:27;;;;;;;6.97;3.95;;;;;;;-1.48;83.81;94162.16;5006858;28;20102;-81
2023/01/29 06:57:53;;;;;;;6.47;3.38;;;;;;;-1.49;83.80;94160.53;5006204;28;20030;-81
2023/01/29 07:00:19;;;;;;;8.23;3.97;;;;;;;-1.38;83.69;94166.75;5006538;28;20267;-81
2023/01/29 07:02:48;;;;;;;7.97;4.38;;;;;;;-1.35;82.41;94164.50;5006421;28;20077;-81
2023/01/29 07:05:14;;;;;;;7.57;4.45;;;;;;;-1.31;82.16;94176.06;5006458;28;20026;-81
2023/01/29 07:07:39;;;;;;;7.85;4.65;;;;;;;-1.30;81.94;94171.66;5006019;28;20284;-81
2023/01/29 07:10:06;;;;;;;9.45;4.75;;;;;;;-1.30;81.56;94169.06;5006309;28;20065;-81
2023/01/29 07:12:31;;;;;;;8.77;4.00;;;;;;;-1.34;82.08;94180.97;5006103;28;20030;-81
2023/01/29 07:14:57;;;;;;;10.73;5.15;;;;;;;-1.25;82.51;94182.22;5005068;28;20092;-81
2023/01/29 07:17:23;;;;;;;9.50;4.72;;;;;;;-1.23;82.60;94178.34;5006219;28;20018;-81
2023/01/29 07:19:48;;;;;;;9.07;4.90;;;;;;;-1.23;82.36;94186.19;5005899;28;20224;-81
2023/01/29 07:22:15;;;;;;;7.70;3.72;;;;;;;-1.17;82.16;94189.69;5006241;28;20033;-81
2023/01/29 07:24:40;;;;;;;8.52;4.13;;;;;;;-1.15;82.06;94187.66;5005971;28;20045;-83
2023/01/29 07:27:06;;;;;;;11.85;5.03;;;;;;;-1.16;82.66;94198.31;5004645;28;20022;-81
2023/01/29 07:29:31;;;;;;;12.57;4.97;;;;;;;-1.10;82.23;94200.03;5005021;28;20026;-81
2023/01/29 07:31:57;;;;;;;12.52;5.20;;;;;;;-1.14;82.38;94207.56;5006029;28;20022;-81
2023/01/29 07:34:22;;;;;;;9.20;5.13;;;;;;;-1.16;81.74;94195.72;5005033;28;20018;-82
2023/01/29 07:36:47;;;;;;;8.88;4.82;;;;;;;-1.12;82.18;94205.50;5005662;28;20037;-81
2023/01/29 07:39:13;;;;;;;11.75;5.07;;;;;;;-1.21;81.97;94196.41;5005870;28;20022;-81
2023/01/29 07:41:39;;;;;;;9.80;5.55;;;;;;;-1.25;82.10;94192.66;5005670;28;20046;-81
2023/01/29 07:44:04;;;;;;;12.40;5.47;;;;;;;-1.25;82.43;94195.28;5005924;28;20022;-81
2023/01/29 07:46:30;;;;;;;11.88;5.78;;;;;;;-1.23;82.68;94201.09;5005550;28;20240;-81
2023/01/29 07:48:57;;;;;;;12.27;6.28;;;;;;;-1.28;83.22;94201.78;5005783;28;20223;-82
2023/01/29 07:51:22;;;;;;;10.57;5.45;;;;;;;-1.24;82.83;94192.44;5005613;28;20064;-82
2023/01/29 07:53:48;;;;;;;10.82;5.00;;;;;;;-1.23;82.85;94207.09;5005240;28;20018;-81
2023/01/29 07:56:13;;;;;;;11.02;5.97;;;;;;;-1.13;83.43;94216.19;5005477;28;20320;-81
2023/01/29 07:58:39;;;;;;;9.77;5.50;;;;;;;-1.11;82.34;94211.53;5005379;28;20022;-81
2023/01/29 08:01:06;;;;;;;18.33;6.47;;;;;;;-1.19;82.94;94217.13;5005424;28;20109;-81
2023/01/29 08:03:32;;;;;;;12.38;6.43;;;;;;;-1.27;82.55;94213.03;5005498;28;20037;-81
2023/01/29 08:05:57;;;;;;;12.55;6.15;;;;;;;-1.25;82.77;94217.00;5005501;28;20355;-81
2023/01/29 08:08:22;;;;;;;13.95;6.35;;;;;;;-1.26;82.31;94219.88;5005093;28;20029;-82
2023/01/29 08:10:48;;;;;;;11.27;6.05;;;;;;;-1.29;82.69;94218.47;5005187;28;20022;-81
2023/01/29 08:13:13;;;;;;;10.90;5.60;;;;;;;-1.34;83.34;94214.97;5005257;28;20046;-82
2023/01/29 08:15:43;;;;;;;12.88;6.35;;;;;;;-1.31;83.90;94222.38;5003790;28;20068;-81
2023/01/29 08:18:09;;;;;;;14.82;6.72;;;;;;;-1.30;84.10;94211.69;5004841;28;20101;-82
2023/01/29 08:20:34;;;;;;;9.57;5.05;;;;;;;-1.36;83.77;94228.28;5004969;28;20073;-82
2023/01/29 08:23:01;;;;;;;11.02;5.28;;;;;;;-1.46;84.14;94215.78;5004621;28;20038;-82
2023/01/29 08:25:28;;;;;;;12.27;6.00;;;;;;;-1.46;84.92;94221.03;5004928;28;20018;-82
2023/01/29 08:27:54;;;;;;;12.40;7.05;;;;;;;-1.36;85.03;94217.00;5004981;28;20018;-82
2023/01/29 08:30:20;;;;;;;15.45;6.95;;;;;;;-1.42;84.65;94222.16;5003834;28;20336;-82
2023/01/29 08:32:45;;;;;;;16.58;7.45;;;;;;;-1.37;85.39;94226.69;5004715;28;20022;-82
2023/01/29 08:35:11;;;;;;;13.02;7.00;;;;;;;-1.35;84.50;94226.47;5004667;28;20026;-82
2023/01/29 08:37:36;;;;;;;13.25;7.13;;;;;;;-1.41;83.47;94226.34;5004669;28;20018;-81
2023/01/29 08:40:02;;;;;;;20.08;7.38;;;;;;;-1.33;83.66;94227.03;5004601;28;20285;-82
2023/01/29 08:42:28;;;;;;;14.05;7.13;;;;;;;-1.37;82.90;94244.19;5004610;28;20014;-81
2023/01/29 08:44:53;;;;;;;14.35;6.05;;;;;;;-1.34;82.77;94236.69;5004276;28;20064;-81
2023/01/29 08:47:19;;;;;;;13.10;6.90;;;;;;;-1.28;82.37;94238.41;5003881;28;20098;-81
2023/01/29 08:49:44;;;;;;;15.88;7.13;;;;;;;-1.27;82.31;94244.41;5003241;28;20022;-82
2023/01/29 08:52:09;;;;;;;11.60;6.50;;;;;;;-1.29;81.77;94239.41;5003299;28;20274;-81
2023/01/29 08:54:35;;;;;;;12.45;6.53;;;;;;;-1.31;81.94;94253.75;5004300;28;20035;-82
2023/01/29 08:57:00;;;;;;;14.38;6.63;;;;;;;-1.36;82.17;94243.97;5004107;28;20317;-82
2023/01/29 08:59:26;;;;;;;11.43;6.18;;;;;;;-1.30;82.19;94268.44;5004465;28;20026;-81
2023/01/29 09:01:51;;;;;;;16.95;7.53;;;;;;;-1.30;81.69;94258.75;5004236;28;20037;-81
2023/01/29 09:04:16;;;;;;;10.43;5.93;;;;;;;-1.39;82.17;94264.56;5004302;28;20068;-81
2023/01/29 09:06:42;;;;;;;13.93;7.03;;;;;;;-1.44;82.41;94258.19;5003107;28;20022;-81
2023/01/29 09:09:07;;;;;;;13.73;6.75;;;;;;;-1.46;82.63;94268.09;5003896;28;20046;-81
2023/01/29 09:11:33;;;;;;;16.33;7.75;;;;;;;-1.43;83.09;94253.75;5004023;28;20026;-81
2023/01/29 09:13:58;;;;;;;17.58;8.98;;;;;;;-1.32;83.22;94262.59;5004351;28;20313;-82
2023/01/29 09:16:23;;;;;;;15.60;8.02;;;;;;;-1.35;82.49;94260.47;5004080;28;20022;-82
2023/01/29 09:18:49;;;;;;;15.18;6.90;;;;;;;-1.43;82.53;94253.75;5003781;28;20030;-81
2023/01/29 09:21:14;;;;;;;16.23;7.20;;;;;;;-1.34;82.20;94251.56;5003851;28;20022;-81
2023/01/29 09:23:40;;;;;;;17.77;8.50;;;;;;;-1.28;82.28;94255.91;5004026;28;20202;-82
2023/01/29 09:26:07;;;;;;;15.43;7.65;;;;;;;-1.33;82.48;94246.13;5004177;28;20097;-81
2023/01/29 09:28:32;;;;;;;15.52;7.40;;;;;;;-1.31;82.06;94257.16;5004063;28;20064;-82
2023/01/29 09:31:01;;;;;;;19.08;8.30;;;;;;;-1.25;82.30;94250.22;5004063;28;20101;-82
2023/01/29 09:33:26;;;;;;;14.15;8.20;;;;;;;-1.20;81.83;94247.72;5003787;28;20265;-82
2023/01/29 09:35:52;;;;;;;17.17;8.45;;;;;;;-1.14;81.43;94252.03;5002635;28;20045;-81
2023/01/29 09:38:17;;;;;;;18.23;9.25;;;;;;;-1.12;81.30;94257.81;5003876;28;20026;-82
2023/01/29 09:41:14;;;;;;;18.92;8.63;;;;;;;-1.24;81.16;94246.59;5003995;28;20060;-81
2023/01/29 09:43:39;;;;;;;17.92;7.70;;;;;;;-1.19;81.26;94249.28;5003913;28;20041;-81
2023/01/29 09:46:29;;;;;;;19.48;9.63;;;;;;;-1.12;81.19;94246.53;5002468;28;20325;-81
2023/01/29 09:49:02;;;;;;;20.25;8.43;;;;;;;-1.13;81.37;94237.91;5003535;28;20090;-81
2023/01/29 09:51:36;;;;;;;15.43;7.93;;;;;;;-1.09;81.29;94233.00;5003739;28;20126;-81
2023/01/29 09:54:17;;;;;;;15.35;8.07;;;;;;;-0.98;81.12;94239.25;5003523;28;20030;-82
2023/01/29 09:56:44;;;;;;;19.05;9.80;;;;;;;-0.93;80.47;94227.06;5003774;28;20224;-81
2023/01/29 09:59:13;;;;;;;16.30;8.07;;;;;;;-1.05;80.44;94232.31;5004456;28;20206;-82
2023/01/29 10:01:51;;;;;;;24.35;9.15;;;;;;;-1.01;81.07;94243.91;5007669;28;20025;-81
2023/01/29 10:04:32;;;;;;;27.25;10.05;;;;;;;-0.95;80.89;94244.03;5007524;28;20070;-81
2023/01/29 10:07:34;;;;;;;19.48;8.68;;;;;;;-0.94;80.66;94228.06;5007510;28;20045;-81
2023/01/29 10:10:35;;;;;;;23.35;10.32;;;;;;;-0.83;80.61;94229.09;5007499;28;20054;-81
2023/01/29 10:13:26;;;;;;;22.52;9.80;;;;;;;-0.88;80.79;94231.59;5007247;28;20037;-81
2023/01/29 10:16:27;;;;;;;23.15;9.82;;;;;;;-0.76;80.57;94221.88;5007045;28;20049;-81
2023/01/29 10:19:03;;;;;;;20.23;9.15;;;;;;;-0.92;80.50;94212.16;5007033;28;20339;-81
2023/01/29 10:21:31;;;;;;;16.90;8.63;;;;;;;-0.95;80.83;94212.63;5006845;28;20050;-81
2023/01/29 10:24:27;;;;;;;20.73;8.35;;;;;;;-0.98;80.59;94223.53;5007121;28;20084;-81
2023/01/29 10:26:54;;;;;;;18.75;8.23;;;;;;;-1.10;80.85;94213.91;5001907;28;20235;-81
2023/01/29 10:29:20;;;;;;;19.52;9.45;;;;;;;-0.98;81.44;94207.84;5006566;28;20288;-81
2023/01/29 10:31:53;;;;;;;19.63;9.25;;;;;;;-0.91;80.92;94209.31;5006677;28;20105;-81
2023/01/29 10:34:35;;;;;;;18.85;9.27;;;;;;;-0.93;80.82;94207.97;5006811;28;20018;-81
2023/01/29 10:37:15;;;;;;;21.20;10.38;;;;;;;-0.98;80.69;94203.41;5006718;28;20248;-81
2023/01/29 10:39:41;;;;;;;22.63;9.48;;;;;;;-1.14;81.44;94206.75;5006679;28;20030;-81
2023/01/29 10:42:21;;;;;;;21.27;9.60;;;;;;;-1.09;81.66;94202.41;5006693;28;20065;-81
2023/01/29 10:45:05;;;;;;;17.63;9.35;;;;;;;-1.10;81.53;94213.91;5005395;28;20042;-81
2023/01/29 10:48:03;;;;;;;21.88;9.82;;;;;;;-1.11;82.06;94212.31;5006671;28;20046;-81
2023/01/29 10:51:00;;;;;;;23.15;11.82;;;;;;;-1.09;82.26;94207.66;5005451;28;20022;-81
2023/01/29 10:53:44;;;;;;;25.48;11.13;;;;;;;-1.06;82.29;94212.44;5006503;28;20198;-81
2023/01/29 10:56:09;;;;;;;27.65;10.50;;;;;;;-1.02;82.73;94202.28;5006289;28;20106;-81
2023/01/29 10:58:52;;;;;;;24.27;11.50;;;;;;;-1.00;82.12;94194.97;5006401;28;20078;-84
2023/01/29 11:01:17;;;;;;;;;;;;;;;-0.96;82.13;94195.31;5005737;28;20216;-81
2023/01/29 11:03:42;;;;;;;26.20;11.07;;;;;;;-0.98;81.97;94192.94;5006115;28;19906;-81
2023/01/29 11:06:20;;;;;;;27.30;11.18;;;;;;;-1.08;82.09;94211.88;5004933;28;20026;-81
2023/01/29 11:08:54;;;;;;;22.27;10.20;;;;;;;-1.08;82.25;94196.16;5005003;28;20027;-81
2023/01/29 11:11:25;;;;;;;25.15;12.40;;;;;;;-0.95;82.23;94191.69;5005087;28;20030;-82
2023/01/29 11:13:56;;;;;;;28.05;12.15;;;;;;;-1.07;81.90;94183.88;5006138;28;20030;-82
2023/01/29 11:16:22;;;;;;;26.83;11.13;;;;;;;-1.03;82.36;94177.94;5006828;28;20030;-82
2023/01/29 11:18:50;;;;;;;27.98;12.75;;;;;;;-1.05;82.72;94181.81;5006478;28;20308;-82
2023/01/29 11:21:16;;;;;;;33.85;12.98;;;;;;;-1.03;82.18;94180.56;5004277;28;20057;-82
2023/01/29 11:23:41;;;;;;;25.48;10.85;;;;;;;-1.02;82.34;94182.16;5006401;28;20320;-83
2023/01/29 11:26:11;;;;;;;28.17;12.70;;;;;;;-1.13;82.38;94177.75;5005508;28;20316;-82
2023/01/29 11:28:42;;;;;;;28.17;11.30;;;;;;;-1.12;82.50;94175.91;5006027;28;20244;-82
2023/01/29 11:31:18;;;;;;;30.80;11.43;;;;;;;-1.07;82.72;94168.19;5006082;28;20026;-82
2023/01/29 11:33:45;;;;;;;27.83;12.60;;;;;;;-1.15;82.72;94169.34;5005978;28;20296;-82
2023/01/29 11:36:31;;;;;;;28.75;12.15;;;;;;;-0.99;82.80;94164.41;5005888;28;20033;-82
2023/01/29 11:39:20;;;;;;;27.40;11.68;;;;;;;-0.94;82.00;94167.88;5004977;28;20060;-82
2023/01/29 11:41:52;;;;;;;23.23;10.95;;;;;;;-0.86;81.81;94151.81;5004677;28;20236;-82
2023/01/29 11:44:26;;;;;;;25.88;10.30;;;;;;;-0.78;81.39;94149.84;5005593;28;20033;-82
2023/01/29 11:46:52;;;;;;;30.23;11.82;;;;;;;-0.62;81.09;94142.03;5005499;28;20018;-82
2023/01/29 11:49:31;;;;;;;25.73;10.57;;;;;;;-0.63;80.70;94147.53;5005609;28;20101;-82
2023/01/29 11:52:00;;;;;;;24.23;11.07;;;;;;;-0.59;80.62;94138.16;5005594;28;20034;-82
2023/01/29 11:54:32;;;;;;;21.48;10.75;;;;;;;-0.55;80.43;94144.50;5005675;28;20030;-82
2023/01/29 11:56:57;;;;;;;23.17;11.40;;;;;;;-0.53;79.51;94150.31;5005656;28;20026;-82
2023/01/29 11:59:26;;;;;;;24.20;10.40;;;;;;;-0.42;79.48;94146.03;5004096;28;20268;-82
2023/01/29 12:01:51;;;;;;;26.27;11.10;;;;;;;-0.43;79.31;94152.28;5005241;28;20037;-82
2023/01/29 12:04:23;;;;;;;22.20;11.35;;;;;;;-0.51;79.50;94155.28;5005259;28;20225;-82
2023/01/29 12:06:51;;;;;;;26.60;11.13;;;;;;;-0.50;79.65;94141.19;5003889;28;20321;-82
2023/01/29 12:09:21;;;;;;;23.42;11.45;;;;;;;-0.56;80.16;94135.06;5003892;28;20026;-82